sensor_id;sensor_type;location;lat;lon;timestamp;temperature;humidity
3300;DHT22;1662;49.310;8.134;2023-03-30T00:00:09;16.50;99.90
3300;DHT22;1662;49.310;8.134;2023-03-30T00:02:44;16.50;99.90
3300;DHT22;1662;49.310;8.134;2023-03-30T00:05:11;16.50;99.90
3300;DHT22;1662;49.310;8.134;2023-03-30T00:07:38;16.50;99.90
3300;DHT22;1662;49.310;8.134;2023-03-30T00:10:07;16.50;99.90
3300;DHT22;1662;49.310;8.134;2023-03-30T00:12:35;16.40;99.90
3300;DHT22;1662;49.310;8.134;2023-03-30T00:15:01;16.50;99.90
3300;DHT22;1662;49.310;8.134;2023-03-30T00:17:27;16.50;99.90
3300;DHT22;1662;49.310;8.134;2023-03-30T00:19:52;16.60;99.90
3300;DHT22;1662;49.310;8.134;2023-03-30T00:22:18;16.50;99.90
3300;DHT22;1662;49.310;8.134;2023-03-30T00:24:43;16.60;99.90
3300;DHT22;1662;49.310;8.134;2023-03-30T00:27:09;16.70;99.90
3300;DHT22;1662;49.310;8.134;2023-03-30T00:29:35;16.70;99.90
3300;DHT22;1662;49.310;8.134;2023-03-30T00:32:04;16.80;99.90
3300;DHT22;1662;49.310;8.134;2023-03-30T00:34:30;16.80;99.90
3300;DHT22;1662;49.310;8.134;2023-03-30T00:36:56;16.80;99.90
3300;DHT22;1662;49.310;8.134;2023-03-30T00:39:22;16.90;99.90
3300;DHT22;1662;49.310;8.134;2023-03-30T00:41:51;16.90;99.90
3300;DHT22;1662;49.310;8.134;2023-03-30T00:47:22;17.00;99.90
3300;DHT22;1662;49.310;8.134;2023-03-30T00:49:48;17.00;99.90
3300;DHT22;1662;49.310;8.134;2023-03-30T00:52:14;16.90;99.90
3300;DHT22;1662;49.310;8.134;2023-03-30T00:54:44;16.90;99.90
3300;DHT22;1662;49.310;8.134;2023-03-30T00:57:20;16.90;99.90
3300;DHT22;1662;49.310;8.134;2023-03-30T00:59:49;16.80;99.90
3300;DHT22;1662;49.310;8.134;2023-03-30T01:02:19;16.70;99.90
3300;DHT22;1662;49.310;8.134;2023-03-30T01:04:46;16.60;99.90
3300;DHT22;1662;49.310;8.134;2023-03-30T01:07:16;16.50;99.90
3300;DHT22;1662;49.310;8.134;2023-03-30T01:09:43;16.30;99.90
3300;DHT22;1662;49.310;8.134;2023-03-30T01:12:10;16.30;99.90
3300;DHT22;1662;49.310;8.134;2023-03-30T01:14:36;16.40;99.90
3300;DHT22;1662;49.310;8.134;2023-03-30T01:17:34;16.70;99.90
3300;DHT22;1662;49.310;8.134;2023-03-30T01:28:58;16.70;99.90
3300;DHT22;1662;49.310;8.134;2023-03-30T01:50:14;16.60;99.90
3300;DHT22;1662;49.310;8.134;2023-03-30T01:52:49;16.60;99.90
3300;DHT22;1662;49.310;8.134;2023-03-30T01:55:42;16.50;99.90
3300;DHT22;1662;49.310;8.134;2023-03-30T01:58:19;16.50;99.90
3300;DHT22;1662;49.310;8.134;2023-03-30T02:00:50;16.60;99.90
3300;DHT22;1662;49.310;8.134;2023-03-30T02:03:28;16.60;99.90
3300;DHT22;1662;49.310;8.134;2023-03-30T02:05:57;16.50;99.90
3300;DHT22;1662;49.310;8.134;2023-03-30T02:08:30;16.50;99.90
3300;DHT22;1662;49.310;8.134;2023-03-30T02:10:57;16.50;99.90
3300;DHT22;1662;49.310;8.134;2023-03-30T02:13:26;16.50;99.90
3300;DHT22;1662;49.310;8.134;2023-03-30T02:16:02;16.60;99.90
3300;DHT22;1662;49.310;8.134;2023-03-30T02:18:29;16.50;99.90
3300;DHT22;1662;49.310;8.134;2023-03-30T02:20:55;16.50;99.90
3300;DHT22;1662;49.310;8.134;2023-03-30T02:23:27;16.50;99.90
3300;DHT22;1662;49.310;8.134;2023-03-30T02:25:58;16.40;99.90
3300;DHT22;1662;49.310;8.134;2023-03-30T02:28:24;16.30;99.90
3300;DHT22;1662;49.310;8.134;2023-03-30T02:30:49;16.20;99.90
3300;DHT22;1662;49.310;8.134;2023-03-30T02:33:22;16.20;99.90
3300;DHT22;1662;49.310;8.134;2023-03-30T02:39:04;16.00;99.90
3300;DHT22;1662;49.310;8.134;2023-03-30T02:44:44;16.00;99.90
3300;DHT22;1662;49.310;8.134;2023-03-30T02:50:19;15.90;99.90
3300;DHT22;1662;49.310;8.134;2023-03-30T02:55:30;15.90;99.90
3300;DHT22;1662;49.310;8.134;2023-03-30T02:58:10;16.00;99.90
3300;DHT22;1662;49.310;8.134;2023-03-30T03:00:48;16.00;99.90
3300;DHT22;1662;49.310;8.134;2023-03-30T03:03:28;16.10;99.90
3300;DHT22;1662;49.310;8.134;2023-03-30T03:05:58;16.10;99.90
3300;DHT22;1662;49.310;8.134;2023-03-30T03:08:33;16.10;99.90
3300;DHT22;1662;49.310;8.134;2023-03-30T03:10:59;16.10;99.90
3300;DHT22;1662;49.310;8.134;2023-03-30T03:13:25;16.10;99.90
3300;DHT22;1662;49.310;8.134;2023-03-30T03:15:52;16.10;99.90
3300;DHT22;1662;49.310;8.134;2023-03-30T03:18:20;16.10;99.90
3300;DHT22;1662;49.310;8.134;2023-03-30T03:20:46;16.10;99.90
3300;DHT22;1662;49.310;8.134;2023-03-30T03:23:12;16.10;99.90
3300;DHT22;1662;49.310;8.134;2023-03-30T03:25:40;16.10;99.90
3300;DHT22;1662;49.310;8.134;2023-03-30T03:28:08;16.10;99.90
3300;DHT22;1662;49.310;8.134;2023-03-30T03:30:35;16.10;99.90
3300;DHT22;1662;49.310;8.134;2023-03-30T03:33:01;16.00;99.90
3300;DHT22;1662;49.310;8.134;2023-03-30T03:35:27;15.80;99.90
3300;DHT22;1662;49.310;8.134;2023-03-30T03:37:54;15.60;99.90
3300;DHT22;1662;49.310;8.134;2023-03-30T03:40:20;15.40;99.90
3300;DHT22;1662;49.310;8.134;2023-03-30T03:42:45;15.30;99.90
3300;DHT22;1662;49.310;8.134;2023-03-30T03:45:11;15.20;99.90
3300;DHT22;1662;49.310;8.134;2023-03-30T03:47:37;14.90;99.90
3300;DHT22;1662;49.310;8.134;2023-03-30T03:50:03;14.70;99.90
3300;DHT22;1662;49.310;8.134;2023-03-30T03:52:31;14.40;99.90
3300;DHT22;1662;49.310;8.134;2023-03-30T03:54:57;14.40;99.90
3300;DHT22;1662;49.310;8.134;2023-03-30T03:57:22;14.40;99.90
3300;DHT22;1662;49.310;8.134;2023-03-30T03:59:49;14.30;99.90
3300;DHT22;1662;49.310;8.134;2023-03-30T04:02:16;14.30;99.90
3300;DHT22;1662;49.310;8.134;2023-03-30T04:04:41;14.30;99.90
3300;DHT22;1662;49.310;8.134;2023-03-30T04:07:07;14.20;99.90
3300;DHT22;1662;49.310;8.134;2023-03-30T04:09:34;14.20;99.90
3300;DHT22;1662;49.310;8.134;2023-03-30T04:12:02;14.20;99.90
3300;DHT22;1662;49.310;8.134;2023-03-30T04:14:31;14.20;99.90
3300;DHT22;1662;49.310;8.134;2023-03-30T04:16:57;14.30;99.90
3300;DHT22;1662;49.310;8.134;2023-03-30T04:19:26;14.20;99.90
3300;DHT22;1662;49.310;8.134;2023-03-30T04:21:52;14.10;99.90
3300;DHT22;1662;49.310;8.134;2023-03-30T04:24:20;14.10;99.90
3300;DHT22;1662;49.310;8.134;2023-03-30T04:26:47;14.10;99.90
3300;DHT22;1662;49.310;8.134;2023-03-30T04:29:16;14.00;99.90
3300;DHT22;1662;49.310;8.134;2023-03-30T04:31:43;14.00;99.90
3300;DHT22;1662;49.310;8.134;2023-03-30T04:34:12;13.90;99.90
3300;DHT22;1662;49.310;8.134;2023-03-30T04:36:38;14.00;99.90
3300;DHT22;1662;49.310;8.134;2023-03-30T04:39:08;14.00;99.90
3300;DHT22;1662;49.310;8.134;2023-03-30T04:41:35;14.00;99.90
3300;DHT22;1662;49.310;8.134;2023-03-30T04:44:06;14.00;99.90
3300;DHT22;1662;49.310;8.134;2023-03-30T04:46:34;14.00;99.90
3300;DHT22;1662;49.310;8.134;2023-03-30T04:49:00;14.10;99.90
3300;DHT22;1662;49.310;8.134;2023-03-30T04:51:27;14.20;99.90
3300;DHT22;1662;49.310;8.134;2023-03-30T04:53:53;14.20;99.90
3300;DHT22;1662;49.310;8.134;2023-03-30T04:56:20;14.20;99.90
3300;DHT22;1662;49.310;8.134;2023-03-30T04:58:46;14.10;99.90
3300;DHT22;1662;49.310;8.134;2023-03-30T05:01:14;14.10;99.90
3300;DHT22;1662;49.310;8.134;2023-03-30T05:03:40;14.20;99.90
3300;DHT22;1662;49.310;8.134;2023-03-30T05:06:06;14.20;99.90
3300;DHT22;1662;49.310;8.134;2023-03-30T05:08:32;14.20;99.90
3300;DHT22;1662;49.310;8.134;2023-03-30T05:11:02;14.10;99.90
3300;DHT22;1662;49.310;8.134;2023-03-30T05:13:40;14.10;99.90
3300;DHT22;1662;49.310;8.134;2023-03-30T05:16:06;14.20;99.90
3300;DHT22;1662;49.310;8.134;2023-03-30T05:18:32;14.10;99.90
3300;DHT22;1662;49.310;8.134;2023-03-30T05:20:58;14.10;99.90
3300;DHT22;1662;49.310;8.134;2023-03-30T05:23:24;14.10;99.90
3300;DHT22;1662;49.310;8.134;2023-03-30T05:25:52;14.10;99.90
3300;DHT22;1662;49.310;8.134;2023-03-30T05:28:19;14.10;99.90
3300;DHT22;1662;49.310;8.134;2023-03-30T05:30:51;14.50;99.90
3300;DHT22;1662;49.310;8.134;2023-03-30T05:33:19;14.80;99.90
3300;DHT22;1662;49.310;8.134;2023-03-30T05:35:47;15.00;99.90
3300;DHT22;1662;49.310;8.134;2023-03-30T05:38:13;15.00;99.90
3300;DHT22;1662;49.310;8.134;2023-03-30T05:40:41;14.90;99.90
3300;DHT22;1662;49.310;8.134;2023-03-30T05:43:06;14.80;99.90
3300;DHT22;1662;49.310;8.134;2023-03-30T05:45:32;14.60;99.90
3300;DHT22;1662;49.310;8.134;2023-03-30T05:47:58;14.50;99.90
3300;DHT22;1662;49.310;8.134;2023-03-30T05:50:26;14.40;99.90
3300;DHT22;1662;49.310;8.134;2023-03-30T05:52:53;14.20;99.90
3300;DHT22;1662;49.310;8.134;2023-03-30T05:55:19;14.10;99.90
3300;DHT22;1662;49.310;8.134;2023-03-30T05:57:45;14.00;99.90
3300;DHT22;1662;49.310;8.134;2023-03-30T06:00:11;13.90;99.90
3300;DHT22;1662;49.310;8.134;2023-03-30T06:02:40;13.90;99.90
3300;DHT22;1662;49.310;8.134;2023-03-30T06:05:06;14.00;99.90
3300;DHT22;1662;49.310;8.134;2023-03-30T06:07:32;14.00;99.90
3300;DHT22;1662;49.310;8.134;2023-03-30T06:09:58;13.90;99.90
3300;DHT22;1662;49.310;8.134;2023-03-30T06:12:26;14.00;99.90
3300;DHT22;1662;49.310;8.134;2023-03-30T06:14:51;13.80;99.90
3300;DHT22;1662;49.310;8.134;2023-03-30T06:17:17;13.70;99.90
3300;DHT22;1662;49.310;8.134;2023-03-30T06:19:43;13.60;99.90
3300;DHT22;1662;49.310;8.134;2023-03-30T06:22:09;13.50;99.90
3300;DHT22;1662;49.310;8.134;2023-03-30T06:24:35;13.60;99.90
3300;DHT22;1662;49.310;8.134;2023-03-30T06:27:03;13.70;99.90
3300;DHT22;1662;49.310;8.134;2023-03-30T06:29:30;13.70;99.90
3300;DHT22;1662;49.310;8.134;2023-03-30T06:31:56;13.60;99.90
3300;DHT22;1662;49.310;8.134;2023-03-30T06:34:22;13.50;99.90
3300;DHT22;1662;49.310;8.134;2023-03-30T06:36:47;13.40;99.90
3300;DHT22;1662;49.310;8.134;2023-03-30T06:39:13;13.40;99.90
3300;DHT22;1662;49.310;8.134;2023-03-30T06:41:40;13.40;99.90
3300;DHT22;1662;49.310;8.134;2023-03-30T06:44:08;13.40;99.90
3300;DHT22;1662;49.310;8.134;2023-03-30T06:46:39;13.40;99.90
3300;DHT22;1662;49.310;8.134;2023-03-30T06:49:05;13.50;99.90
3300;DHT22;1662;49.310;8.134;2023-03-30T06:51:31;13.50;99.90
3300;DHT22;1662;49.310;8.134;2023-03-30T06:54:01;13.40;99.90
3300;DHT22;1662;49.310;8.134;2023-03-30T06:56:27;13.40;99.90
3300;DHT22;1662;49.310;8.134;2023-03-30T06:58:53;13.40;99.90
3300;DHT22;1662;49.310;8.134;2023-03-30T07:01:19;13.50;99.90
3300;DHT22;1662;49.310;8.134;2023-03-30T07:03:45;13.50;99.90
3300;DHT22;1662;49.310;8.134;2023-03-30T07:06:11;13.50;99.90
3300;DHT22;1662;49.310;8.134;2023-03-30T07:08:40;13.50;99.90
3300;DHT22;1662;49.310;8.134;2023-03-30T07:11:14;13.60;99.90
3300;DHT22;1662;49.310;8.134;2023-03-30T07:13:46;13.70;99.90
3300;DHT22;1662;49.310;8.134;2023-03-30T07:16:15;12.60;99.90
3300;DHT22;1662;49.310;8.134;2023-03-30T07:18:43;13.50;99.90
3300;DHT22;1662;49.310;8.134;2023-03-30T07:21:12;13.50;99.90
3300;DHT22;1662;49.310;8.134;2023-03-30T07:23:38;13.50;99.90
3300;DHT22;1662;49.310;8.134;2023-03-30T07:26:04;13.50;99.90
3300;DHT22;1662;49.310;8.134;2023-03-30T07:28:31;13.50;99.90
3300;DHT22;1662;49.310;8.134;2023-03-30T07:31:05;13.50;99.90
3300;DHT22;1662;49.310;8.134;2023-03-30T07:33:34;13.40;99.90
3300;DHT22;1662;49.310;8.134;2023-03-30T07:36:05;13.60;99.90
3300;DHT22;1662;49.310;8.134;2023-03-30T07:38:34;13.50;99.90
3300;DHT22;1662;49.310;8.134;2023-03-30T07:41:11;13.50;99.90
3300;DHT22;1662;49.310;8.134;2023-03-30T07:43:37;13.60;99.90
3300;DHT22;1662;49.310;8.134;2023-03-30T07:46:10;13.50;99.90
3300;DHT22;1662;49.310;8.134;2023-03-30T07:48:37;13.50;99.90
3300;DHT22;1662;49.310;8.134;2023-03-30T07:51:13;13.60;99.90
3300;DHT22;1662;49.310;8.134;2023-03-30T07:53:39;13.60;99.90
3300;DHT22;1662;49.310;8.134;2023-03-30T07:56:07;13.50;99.90
3300;DHT22;1662;49.310;8.134;2023-03-30T07:58:36;13.70;99.90
3300;DHT22;1662;49.310;8.134;2023-03-30T08:01:02;13.60;99.90
3300;DHT22;1662;49.310;8.134;2023-03-30T08:03:29;13.50;99.90
3300;DHT22;1662;49.310;8.134;2023-03-30T08:06:03;13.50;99.90
3300;DHT22;1662;49.310;8.134;2023-03-30T08:08:31;13.50;99.90
3300;DHT22;1662;49.310;8.134;2023-03-30T08:10:58;13.60;99.90
3300;DHT22;1662;49.310;8.134;2023-03-30T08:13:24;13.70;99.90
3300;DHT22;1662;49.310;8.134;2023-03-30T08:15:52;13.60;99.90
3300;DHT22;1662;49.310;8.134;2023-03-30T08:18:19;13.70;99.90
3300;DHT22;1662;49.310;8.134;2023-03-30T08:20:49;13.70;99.90
3300;DHT22;1662;49.310;8.134;2023-03-30T08:23:17;13.50;99.90
3300;DHT22;1662;49.310;8.134;2023-03-30T08:25:43;13.50;99.90
3300;DHT22;1662;49.310;8.134;2023-03-30T08:28:10;13.60;99.90
3300;DHT22;1662;49.310;8.134;2023-03-30T08:30:36;13.70;99.90
3300;DHT22;1662;49.310;8.134;2023-03-30T08:33:01;13.80;99.90
3300;DHT22;1662;49.310;8.134;2023-03-30T08:35:36;13.90;99.90
3300;DHT22;1662;49.310;8.134;2023-03-30T08:38:03;14.00;99.90
3300;DHT22;1662;49.310;8.134;2023-03-30T08:40:29;14.10;99.90
3300;DHT22;1662;49.310;8.134;2023-03-30T08:43:21;14.10;99.90
3300;DHT22;1662;49.310;8.134;2023-03-30T08:45:52;14.20;99.90
3300;DHT22;1662;49.310;8.134;2023-03-30T08:48:24;14.30;99.90
3300;DHT22;1662;49.310;8.134;2023-03-30T08:51:01;14.10;99.90
3300;DHT22;1662;49.310;8.134;2023-03-30T08:53:32;14.00;99.90
3300;DHT22;1662;49.310;8.134;2023-03-30T08:56:12;14.10;99.90
3300;DHT22;1662;49.310;8.134;2023-03-30T09:10:41;14.10;99.90
3300;DHT22;1662;49.310;8.134;2023-03-30T09:13:12;14.00;99.90
3300;DHT22;1662;49.310;8.134;2023-03-30T09:15:48;13.90;99.90
3300;DHT22;1662;49.310;8.134;2023-03-30T09:18:34;13.90;99.90
3300;DHT22;1662;49.310;8.134;2023-03-30T09:21:01;14.00;99.90
3300;DHT22;1662;49.310;8.134;2023-03-30T09:23:31;14.10;99.90
3300;DHT22;1662;49.310;8.134;2023-03-30T09:26:04;14.10;99.90
3300;DHT22;1662;49.310;8.134;2023-03-30T09:28:33;14.30;99.90
3300;DHT22;1662;49.310;8.134;2023-03-30T09:34:26;14.30;99.90
3300;DHT22;1662;49.310;8.134;2023-03-30T09:39:24;14.30;99.90
3300;DHT22;1662;49.310;8.134;2023-03-30T09:47:38;14.50;99.90
3300;DHT22;1662;49.310;8.134;2023-03-30T09:50:17;14.50;99.90
3300;DHT22;1662;49.310;8.134;2023-03-30T09:53:04;14.50;99.90
3300;DHT22;1662;49.310;8.134;2023-03-30T09:55:34;14.50;99.90
3300;DHT22;1662;49.310;8.134;2023-03-30T09:58:22;14.50;99.90
3300;DHT22;1662;49.310;8.134;2023-03-30T10:01:21;14.60;99.90
3300;DHT22;1662;49.310;8.134;2023-03-30T10:04:08;14.70;99.90
3300;DHT22;1662;49.310;8.134;2023-03-30T10:06:47;14.70;99.90
3300;DHT22;1662;49.310;8.134;2023-03-30T10:09:25;14.80;99.90
3300;DHT22;1662;49.310;8.134;2023-03-30T10:12:04;14.60;99.90
3300;DHT22;1662;49.310;8.134;2023-03-30T10:14:35;14.50;99.90
3300;DHT22;1662;49.310;8.134;2023-03-30T10:17:18;14.60;99.90
3300;DHT22;1662;49.310;8.134;2023-03-30T10:22:55;14.50;99.90
3300;DHT22;1662;49.310;8.134;2023-03-30T10:25:37;14.60;99.90
3300;DHT22;1662;49.310;8.134;2023-03-30T10:28:25;14.50;99.90
3300;DHT22;1662;49.310;8.134;2023-03-30T10:31:13;14.60;99.90
3300;DHT22;1662;49.310;8.134;2023-03-30T10:33:43;14.60;99.90
3300;DHT22;1662;49.310;8.134;2023-03-30T10:36:16;14.60;99.90
3300;DHT22;1662;49.310;8.134;2023-03-30T10:39:02;14.60;99.90
3300;DHT22;1662;49.310;8.134;2023-03-30T10:41:40;14.50;99.90
3300;DHT22;1662;49.310;8.134;2023-03-30T10:50:37;14.80;99.90
3300;DHT22;1662;49.310;8.134;2023-03-30T10:53:50;15.00;99.90
3300;DHT22;1662;49.310;8.134;2023-03-30T10:56:51;15.10;99.90
3300;DHT22;1662;49.310;8.134;2023-03-30T11:05:11;16.10;99.90
3300;DHT22;1662;49.310;8.134;2023-03-30T11:07:56;16.20;99.90
3300;DHT22;1662;49.310;8.134;2023-03-30T11:10:39;16.20;99.90
3300;DHT22;1662;49.310;8.134;2023-03-30T11:13:26;16.10;99.90
3300;DHT22;1662;49.310;8.134;2023-03-30T11:16:04;16.10;99.90
3300;DHT22;1662;49.310;8.134;2023-03-30T11:24:38;16.60;99.90
3300;DHT22;1662;49.310;8.134;2023-03-30T11:27:23;16.70;99.90
3300;DHT22;1662;49.310;8.134;2023-03-30T11:35:40;16.90;99.90
3300;DHT22;1662;49.310;8.134;2023-03-30T11:41:02;16.90;99.90
3300;DHT22;1662;49.310;8.134;2023-03-30T11:43:30;16.90;99.90
3300;DHT22;1662;49.310;8.134;2023-03-30T11:58:05;16.40;99.90
3300;DHT22;1662;49.310;8.134;2023-03-30T12:03:52;16.80;99.90
3300;DHT22;1662;49.310;8.134;2023-03-30T12:06:37;17.10;99.90
3300;DHT22;1662;49.310;8.134;2023-03-30T12:09:23;17.40;99.90
3300;DHT22;1662;49.310;8.134;2023-03-30T12:18:14;18.10;99.90
3300;DHT22;1662;49.310;8.134;2023-03-30T12:23:56;18.30;99.90
3300;DHT22;1662;49.310;8.134;2023-03-30T12:26:32;18.30;99.90
3300;DHT22;1662;49.310;8.134;2023-03-30T12:29:13;18.40;99.90
3300;DHT22;1662;49.310;8.134;2023-03-30T12:34:18;18.20;99.90
3300;DHT22;1662;49.310;8.134;2023-03-30T12:36:47;18.40;99.90
3300;DHT22;1662;49.310;8.134;2023-03-30T12:40:31;18.30;99.90
3300;DHT22;1662;49.310;8.134;2023-03-30T12:44:02;18.40;99.90
3300;DHT22;1662;49.310;8.134;2023-03-30T12:56:04;18.70;99.90
3300;DHT22;1662;49.310;8.134;2023-03-30T13:02:16;18.80;99.90
3300;DHT22;1662;49.310;8.134;2023-03-30T13:05:15;19.00;99.90
3300;DHT22;1662;49.310;8.134;2023-03-30T13:07:42;19.30;99.90
3300;DHT22;1662;49.310;8.134;2023-03-30T13:10:34;19.60;99.90
3300;DHT22;1662;49.310;8.134;2023-03-30T13:13:04;19.80;99.90
3300;DHT22;1662;49.310;8.134;2023-03-30T13:15:45;19.80;99.90
3300;DHT22;1662;49.310;8.134;2023-03-30T13:18:33;19.90;99.90
3300;DHT22;1662;49.310;8.134;2023-03-30T13:21:16;19.60;99.90
3300;DHT22;1662;49.310;8.134;2023-03-30T13:23:43;19.60;99.90
3300;DHT22;1662;49.310;8.134;2023-03-30T13:26:25;19.50;99.90
3300;DHT22;1662;49.310;8.134;2023-03-30T13:29:03;19.20;99.90
3300;DHT22;1662;49.310;8.134;2023-03-30T13:34:23;19.10;99.90
3300;DHT22;1662;49.310;8.134;2023-03-30T13:42:35;19.60;99.90
3300;DHT22;1662;49.310;8.134;2023-03-30T13:48:34;19.50;99.90
3300;DHT22;1662;49.310;8.134;2023-03-30T13:51:19;19.70;99.90
3300;DHT22;1662;49.310;8.134;2023-03-30T13:54:16;19.90;99.90
3300;DHT22;1662;49.310;8.134;2023-03-30T13:57:11;20.40;99.90
3300;DHT22;1662;49.310;8.134;2023-03-30T13:59:49;20.50;99.90
3300;DHT22;1662;49.310;8.134;2023-03-30T14:02:21;20.60;99.90
3300;DHT22;1662;49.310;8.134;2023-03-30T14:04:48;20.70;99.90
3300;DHT22;1662;49.310;8.134;2023-03-30T14:07:20;20.50;99.90
3300;DHT22;1662;49.310;8.134;2023-03-30T14:10:26;20.30;99.90
3300;DHT22;1662;49.310;8.134;2023-03-30T14:13:15;20.30;99.90
3300;DHT22;1662;49.310;8.134;2023-03-30T14:16:34;20.50;99.90
3300;DHT22;1662;49.310;8.134;2023-03-30T14:20:18;20.70;99.90
3300;DHT22;1662;49.310;8.134;2023-03-30T14:23:42;20.50;99.90
3300;DHT22;1662;49.310;8.134;2023-03-30T14:26:15;20.50;98.30
3300;DHT22;1662;49.310;8.134;2023-03-30T14:28:45;20.40;98.80
3300;DHT22;1662;49.310;8.134;2023-03-30T14:31:19;20.40;98.90
3300;DHT22;1662;49.310;8.134;2023-03-30T14:33:45;20.30;99.30
3300;DHT22;1662;49.310;8.134;2023-03-30T14:36:16;20.00;99.90
3300;DHT22;1662;49.310;8.134;2023-03-30T14:38:46;19.90;99.90
3300;DHT22;1662;49.310;8.134;2023-03-30T14:41:36;20.00;99.90
3300;DHT22;1662;49.310;8.134;2023-03-30T14:44:07;20.10;99.90
3300;DHT22;1662;49.310;8.134;2023-03-30T14:46:47;20.20;99.90
3300;DHT22;1662;49.310;8.134;2023-03-30T14:49:24;20.20;99.90
3300;DHT22;1662;49.310;8.134;2023-03-30T14:51:59;20.20;99.90
3300;DHT22;1662;49.310;8.134;2023-03-30T14:54:26;20.30;99.90
3300;DHT22;1662;49.310;8.134;2023-03-30T14:56:59;20.20;99.90
3300;DHT22;1662;49.310;8.134;2023-03-30T14:59:29;20.30;99.90
3300;DHT22;1662;49.310;8.134;2023-03-30T15:02:00;20.40;99.90
3300;DHT22;1662;49.310;8.134;2023-03-30T15:04:31;20.40;99.90
3300;DHT22;1662;49.310;8.134;2023-03-30T15:07:00;20.30;99.90
3300;DHT22;1662;49.310;8.134;2023-03-30T15:09:37;20.40;99.90
3300;DHT22;1662;49.310;8.134;2023-03-30T15:12:04;20.50;98.70
3300;DHT22;1662;49.310;8.134;2023-03-30T15:14:36;20.50;98.00
3300;DHT22;1662;49.310;8.134;2023-03-30T15:17:09;20.60;98.60
3300;DHT22;1662;49.310;8.134;2023-03-30T15:19:47;20.70;98.30
3300;DHT22;1662;49.310;8.134;2023-03-30T15:22:35;20.70;98.30
3300;DHT22;1662;49.310;8.134;2023-03-30T15:25:32;20.60;97.90
3300;DHT22;1662;49.310;8.134;2023-03-30T15:28:22;20.80;97.90
3300;DHT22;1662;49.310;8.134;2023-03-30T15:30:52;21.20;98.00
3300;DHT22;1662;49.310;8.134;2023-03-30T15:33:30;21.20;97.90
3300;DHT22;1662;49.310;8.134;2023-03-30T15:36:04;21.20;97.10
3300;DHT22;1662;49.310;8.134;2023-03-30T15:38:34;20.60;98.00
3300;DHT22;1662;49.310;8.134;2023-03-30T15:41:01;20.20;98.90
3300;DHT22;1662;49.310;8.134;2023-03-30T15:44:24;20.30;99.90
3300;DHT22;1662;49.310;8.134;2023-03-30T15:46:27;20.30;99.90
3300;DHT22;1662;49.310;8.134;2023-03-30T15:48:57;20.50;99.90
3300;DHT22;1662;49.310;8.134;2023-03-30T15:54:55;20.40;99.90
3300;DHT22;1662;49.310;8.134;2023-03-30T15:57:29;20.40;99.90
3300;DHT22;1662;49.310;8.134;2023-03-30T16:00:24;20.50;99.90
3300;DHT22;1662;49.310;8.134;2023-03-30T16:02:58;20.30;99.90
3300;DHT22;1662;49.310;8.134;2023-03-30T16:05:26;19.80;99.90
3300;DHT22;1662;49.310;8.134;2023-03-30T16:07:53;19.40;99.90
3300;DHT22;1662;49.310;8.134;2023-03-30T16:10:23;19.10;99.90
3300;DHT22;1662;49.310;8.134;2023-03-30T16:12:52;18.80;99.90
3300;DHT22;1662;49.310;8.134;2023-03-30T16:15:25;18.60;99.90
3300;DHT22;1662;49.310;8.134;2023-03-30T16:17:52;18.40;99.90
3300;DHT22;1662;49.310;8.134;2023-03-30T16:20:21;18.20;99.90
3300;DHT22;1662;49.310;8.134;2023-03-30T16:22:52;18.10;99.90
3300;DHT22;1662;49.310;8.134;2023-03-30T16:25:27;18.00;99.90
3300;DHT22;1662;49.310;8.134;2023-03-30T16:27:53;17.90;99.90
3300;DHT22;1662;49.310;8.134;2023-03-30T16:30:22;17.80;99.90
3300;DHT22;1662;49.310;8.134;2023-03-30T16:32:50;17.60;99.90
3300;DHT22;1662;49.310;8.134;2023-03-30T16:35:16;17.60;99.90
3300;DHT22;1662;49.310;8.134;2023-03-30T16:37:42;17.60;99.90
3300;DHT22;1662;49.310;8.134;2023-03-30T16:40:33;17.60;99.90
3300;DHT22;1662;49.310;8.134;2023-03-30T16:42:59;17.40;99.90
3300;DHT22;1662;49.310;8.134;2023-03-30T16:45:26;17.40;99.90
3300;DHT22;1662;49.310;8.134;2023-03-30T16:47:52;17.40;99.90
3300;DHT22;1662;49.310;8.134;2023-03-30T16:50:21;17.40;99.90
3300;DHT22;1662;49.310;8.134;2023-03-30T16:52:48;17.40;99.90
3300;DHT22;1662;49.310;8.134;2023-03-30T16:55:15;17.20;99.90
3300;DHT22;1662;49.310;8.134;2023-03-30T16:57:44;17.30;99.90
3300;DHT22;1662;49.310;8.134;2023-03-30T17:00:18;17.30;99.90
3300;DHT22;1662;49.310;8.134;2023-03-30T17:02:44;16.60;99.90
3300;DHT22;1662;49.310;8.134;2023-03-30T17:05:12;17.30;99.90
3300;DHT22;1662;49.310;8.134;2023-03-30T17:07:38;17.20;99.90
3300;DHT22;1662;49.310;8.134;2023-03-30T17:10:27;17.10;99.90
3300;DHT22;1662;49.310;8.134;2023-03-30T17:12:54;17.20;99.90
3300;DHT22;1662;49.310;8.134;2023-03-30T17:15:22;17.20;99.90
3300;DHT22;1662;49.310;8.134;2023-03-30T17:17:49;17.20;99.90
3300;DHT22;1662;49.310;8.134;2023-03-30T17:20:55;17.00;99.90
3300;DHT22;1662;49.310;8.134;2023-03-30T17:23:25;16.90;99.90
3300;DHT22;1662;49.310;8.134;2023-03-30T17:25:56;16.90;99.90
3300;DHT22;1662;49.310;8.134;2023-03-30T17:28:29;16.90;99.90
3300;DHT22;1662;49.310;8.134;2023-03-30T17:31:00;16.70;99.90
3300;DHT22;1662;49.310;8.134;2023-03-30T17:33:27;16.70;99.90
3300;DHT22;1662;49.310;8.134;2023-03-30T17:36:03;16.60;99.90
3300;DHT22;1662;49.310;8.134;2023-03-30T17:38:31;16.60;99.90
3300;DHT22;1662;49.310;8.134;2023-03-30T17:41:05;16.50;99.90
3300;DHT22;1662;49.310;8.134;2023-03-30T17:43:30;16.50;99.90
3300;DHT22;1662;49.310;8.134;2023-03-30T17:45:56;16.60;99.90
3300;DHT22;1662;49.310;8.134;2023-03-30T17:48:22;16.50;99.90
3300;DHT22;1662;49.310;8.134;2023-03-30T17:50:48;16.50;99.90
3300;DHT22;1662;49.310;8.134;2023-03-30T17:53:16;16.50;99.90
3300;DHT22;1662;49.310;8.134;2023-03-30T17:55:46;16.40;99.90
3300;DHT22;1662;49.310;8.134;2023-03-30T17:58:22;16.40;99.90
3300;DHT22;1662;49.310;8.134;2023-03-30T18:00:49;16.30;99.90
3300;DHT22;1662;49.310;8.134;2023-03-30T18:03:16;16.20;99.90
3300;DHT22;1662;49.310;8.134;2023-03-30T18:05:42;16.10;99.90
3300;DHT22;1662;49.310;8.134;2023-03-30T18:08:13;16.00;99.90
3300;DHT22;1662;49.310;8.134;2023-03-30T18:10:49;16.00;99.90
3300;DHT22;1662;49.310;8.134;2023-03-30T18:13:16;16.00;99.90
3300;DHT22;1662;49.310;8.134;2023-03-30T18:15:42;15.90;99.90
3300;DHT22;1662;49.310;8.134;2023-03-30T18:18:13;15.90;99.90
3300;DHT22;1662;49.310;8.134;2023-03-30T18:20:41;15.90;99.90
3300;DHT22;1662;49.310;8.134;2023-03-30T18:23:09;15.80;99.90
3300;DHT22;1662;49.310;8.134;2023-03-30T18:25:35;15.80;99.90
3300;DHT22;1662;49.310;8.134;2023-03-30T18:28:01;15.70;99.90
3300;DHT22;1662;49.310;8.134;2023-03-30T18:30:32;15.70;99.90
3300;DHT22;1662;49.310;8.134;2023-03-30T18:33:01;15.60;99.90
3300;DHT22;1662;49.310;8.134;2023-03-30T18:35:28;15.70;99.90
3300;DHT22;1662;49.310;8.134;2023-03-30T18:37:55;15.80;99.90
3300;DHT22;1662;49.310;8.134;2023-03-30T18:40:36;15.70;99.90
3300;DHT22;1662;49.310;8.134;2023-03-30T18:43:02;15.70;99.90
3300;DHT22;1662;49.310;8.134;2023-03-30T18:45:33;15.70;99.90
3300;DHT22;1662;49.310;8.134;2023-03-30T18:48:00;15.60;99.90
3300;DHT22;1662;49.310;8.134;2023-03-30T18:50:41;15.60;99.90
3300;DHT22;1662;49.310;8.134;2023-03-30T18:53:09;15.60;99.90
3300;DHT22;1662;49.310;8.134;2023-03-30T18:55:37;15.50;99.90
3300;DHT22;1662;49.310;8.134;2023-03-30T18:58:23;14.80;99.90
3300;DHT22;1662;49.310;8.134;2023-03-30T19:00:50;14.30;99.90
3300;DHT22;1662;49.310;8.134;2023-03-30T19:03:18;14.20;99.90
3300;DHT22;1662;49.310;8.134;2023-03-30T19:05:44;14.10;99.90